Time;durP1;ratioP1;P1;durP2;ratioP2;P2;SDS_P1;SDS_P2;PMS_P1;PMS_P2;Temp;Humidity;BMP_temperature;BMP_pressure;BME280_temperature;BME280_humidity;BME280_pressure;Samples;Min_cycle;Max_cycle;Signal;HPM_P1;HPM_P2
2021/12/29 00:02:18;;;;;;;8.33;4.27;;;;;;;11.81;75.86;98447.94;4880258;29;20211;-85
2021/12/29 00:04:45;;;;;;;7.73;3.57;;;;;;;11.78;75.52;98450.75;4880220;29;20171;-84
2021/12/29 00:07:12;;;;;;;10.40;4.73;;;;;;;11.67;75.83;98443.56;4879696;29;20640;-85
2021/12/29 00:09:40;;;;;;;14.07;5.47;;;;;;;11.69;75.97;98439.09;4880159;29;20219;-84
2021/12/29 00:12:10;;;;;;;22.97;5.17;;;;;;;11.62;75.97;98448.31;4879517;29;20192;-85
2021/12/29 00:14:37;;;;;;;10.00;3.80;;;;;;;11.49;76.29;98453.53;4879376;29;20171;-85
2021/12/29 00:17:04;;;;;;;17.77;6.37;;;;;;;11.40;77.08;98446.28;4879515;29;20184;-85
2021/12/29 00:19:31;;;;;;;14.27;5.17;;;;;;;11.43;76.88;98445.22;4879746;29;20175;-85
2021/12/29 00:21:58;;;;;;;13.27;5.00;;;;;;;11.38;77.17;98456.03;4880022;29;20186;-85
2021/12/29 00:24:25;;;;;;;16.20;4.87;;;;;;;11.34;77.49;98457.19;4864121;29;20190;-85
2021/12/29 00:26:51;;;;;;;30.07;9.60;;;;;;;11.28;77.64;98452.34;4863088;29;20551;-85
2021/12/29 00:29:18;;;;;;;12.33;6.53;;;;;;;11.31;77.54;98448.69;4879930;29;20194;-85
2021/12/29 00:31:44;;;;;;;27.63;5.23;;;;;;;11.17;77.95;98452.22;4879796;29;20204;-85
2021/12/29 00:34:11;;;;;;;13.70;5.30;;;;;;;11.13;78.54;98452.53;4879334;29;20632;-84
2021/12/29 00:36:37;;;;;;;10.50;5.17;;;;;;;11.06;79.17;98460.78;4879330;29;20179;-84
2021/12/29 00:39:03;;;;;;;8.50;4.10;;;;;;;10.96;79.59;98458.84;4879296;29;20647;-84
2021/12/29 00:41:30;;;;;;;9.20;4.60;;;;;;;10.91;79.82;98455.69;4878966;29;20231;-84
2021/12/29 00:43:57;;;;;;;27.90;3.47;;;;;;;10.66;80.72;98455.59;4879492;29;20183;-85
2021/12/29 00:46:23;;;;;;;14.60;3.47;;;;;;;10.41;82.51;98453.66;4879489;29;20615;-85
2021/12/29 00:48:50;;;;;;;9.50;3.47;;;;;;;10.37;82.80;98460.03;4879472;29;20245;-85
2021/12/29 00:51:17;;;;;;;4.30;2.77;;;;;;;10.41;82.83;98457.13;4879517;29;20639;-86
2021/12/29 00:53:43;;;;;;;7.47;4.10;;;;;;;10.29;83.01;98463.16;4879405;29;20199;-85
2021/12/29 00:56:10;;;;;;;6.47;4.00;;;;;;;9.86;85.15;98453.56;4862759;29;20190;-86
2021/12/29 00:58:37;;;;;;;6.47;3.33;;;;;;;10.03;85.40;98460.41;4879196;29;20175;-85
2021/12/29 01:01:04;;;;;;;6.77;3.40;;;;;;;10.21;84.69;98457.53;4862755;29;20176;-85
2021/12/29 01:03:33;;;;;;;5.07;2.57;;;;;;;10.29;84.01;98464.91;4879364;29;20180;-86
2021/12/29 01:05:59;;;;;;;8.90;3.93;;;;;;;10.42;83.32;98468.47;4879091;29;20222;-85
2021/12/29 01:08:26;;;;;;;7.67;2.97;;;;;;;10.51;82.94;98462.63;4863623;29;20168;-85
2021/12/29 01:10:53;;;;;;;4.97;2.87;;;;;;;10.49;82.43;98475.00;4879077;29;20239;-85
2021/12/29 01:13:29;;;;;;;12.23;3.57;;;;;;;10.38;83.33;98465.19;4879297;29;20283;-85
2021/12/29 01:16:15;;;;;;;8.83;3.37;;;;;;;10.55;82.71;98466.75;4879048;29;20198;-86
2021/12/29 01:18:45;;;;;;;6.83;2.53;;;;;;;10.66;81.96;98458.22;4879349;29;20194;-85
2021/12/29 01:21:12;;;;;;;5.40;1.57;;;;;;;10.62;81.21;98449.69;4879023;29;20642;-85
2021/12/29 01:23:38;;;;;;;4.60;2.73;;;;;;;10.44;81.90;98456.94;4862640;29;20176;-86
2021/12/29 01:26:05;;;;;;;5.73;2.10;;;;;;;10.27;83.24;98449.28;4880154;29;20244;-85
2021/12/29 01:28:30;;;;;;;7.80;3.63;;;;;;;10.41;82.77;98448.44;4882654;29;20179;-85
2021/12/29 01:30:57;;;;;;;10.17;2.30;;;;;;;10.52;82.07;98442.50;4882294;29;20529;-85
2021/12/29 01:33:24;;;;;;;7.63;3.37;;;;;;;10.61;81.88;98442.78;4882500;29;20199;-85
2021/12/29 01:35:50;;;;;;;5.47;2.43;;;;;;;10.62;81.73;98439.22;4882347;29;20176;-85
2021/12/29 01:38:17;;;;;;;4.27;2.50;;;;;;;10.69;81.43;98431.81;4883366;29;20176;-86
2021/12/29 01:40:48;;;;;;;3.23;2.27;;;;;;;10.60;81.48;98429.78;4882205;29;20240;-85
2021/12/29 01:43:16;;;;;;;7.60;3.30;;;;;;;10.52;81.75;98434.66;4882496;29;20175;-85
2021/12/29 01:45:43;;;;;;;11.73;3.97;;;;;;;10.44;82.51;98430.75;4882127;29;20216;-85
2021/12/29 01:48:10;;;;;;;8.30;3.80;;;;;;;10.55;82.00;98434.47;4882592;29;20209;-86
2021/12/29 01:50:38;;;;;;;23.70;7.03;;;;;;;10.66;81.63;98426.75;4882269;29;20180;-85
2021/12/29 01:53:09;;;;;;;29.90;9.50;;;;;;;10.67;81.33;98417.94;4865504;29;20202;-86
2021/12/29 01:55:39;;;;;;;47.20;12.83;;;;;;;10.49;81.60;98418.19;4882475;29;20164;-85
2021/12/29 01:58:07;;;;;;;49.20;14.93;;;;;;;10.55;81.93;98418.75;4881876;29;20230;-85
2021/12/29 02:00:37;;;;;;;48.97;14.07;;;;;;;10.63;81.28;98419.94;4881851;29;20179;-85
2021/12/29 02:03:02;;;;;;;42.20;13.20;;;;;;;10.60;81.28;98417.50;4865647;29;20626;-85
2021/12/29 02:05:29;;;;;;;34.57;8.90;;;;;;;10.67;80.90;98413.56;4882011;29;20197;-85
2021/12/29 02:07:56;;;;;;;42.80;13.47;;;;;;;10.70;80.92;98415.13;4865282;29;20194;-85
2021/12/29 02:10:24;;;;;;;41.57;11.67;;;;;;;10.68;80.71;98423.09;4865260;29;20582;-85
2021/12/29 02:12:51;;;;;;;59.37;15.70;;;;;;;10.73;80.55;98425.41;4865173;29;20294;-85
2021/12/29 02:15:18;;;;;;;55.53;14.20;;;;;;;10.73;80.73;98435.91;4881844;29;20243;-85
2021/12/29 02:17:45;;;;;;;27.83;9.67;;;;;;;10.80;80.68;98435.41;4865157;29;20184;-85
2021/12/29 02:20:12;;;;;;;18.57;7.07;;;;;;;10.93;80.02;98432.81;4882039;29;20192;-86
2021/12/29 02:22:45;;;;;;;21.20;6.80;;;;;;;10.94;79.60;98429.28;4865031;29;20243;-86
2021/12/29 02:27:55;;;;;;;23.13;8.07;;;;;;;10.60;80.12;98435.84;4866269;29;20172;-85
2021/12/29 02:30:25;;;;;;;23.23;7.50;;;;;;;10.58;80.33;98431.66;4865334;29;20191;-85
2021/12/29 02:32:55;;;;;;;29.03;9.67;;;;;;;10.53;80.75;98438.97;4864847;29;20204;-85
2021/12/29 02:35:22;;;;;;;33.30;11.37;;;;;;;10.58;80.49;98439.50;4881213;29;20187;-85
2021/12/29 02:37:49;;;;;;;30.67;11.10;;;;;;;10.70;80.18;98436.09;4881036;29;20210;-85
2021/12/29 02:40:16;;;;;;;17.93;4.50;;;;;;;10.65;80.21;98432.94;4881186;29;20610;-85
2021/12/29 02:42:43;;;;;;;16.03;6.20;;;;;;;10.58;80.86;98436.88;4864616;29;20242;-85
2021/12/29 02:45:18;;;;;;;8.13;3.77;;;;;;;10.42;81.76;98435.25;4881853;29;20219;-85
2021/12/29 02:47:45;;;;;;;10.67;3.50;;;;;;;10.45;81.39;98434.22;4881631;29;20167;-85
2021/12/29 02:50:15;;;;;;;4.93;2.37;;;;;;;10.32;81.98;98435.94;4881234;29;20618;-86
2021/12/29 02:52:45;;;;;;;8.67;3.20;;;;;;;10.42;81.33;98424.78;4880867;29;20216;-85
2021/12/29 02:55:13;;;;;;;4.53;2.30;;;;;;;10.17;81.78;98429.00;4864486;29;20538;-86
2021/12/29 02:57:40;;;;;;;9.70;4.20;;;;;;;10.29;82.00;98425.63;4872111;29;20190;-86
2021/12/29 03:00:12;;;;;;;5.27;3.10;;;;;;;10.43;81.82;98425.59;4865929;29;20187;-85
2021/12/29 03:02:38;;;;;;;3.80;2.43;;;;;;;10.44;80.85;98422.88;4862235;29;20172;-85
2021/12/29 03:05:05;;;;;;;4.73;2.53;;;;;;;10.42;81.04;98419.53;4845794;29;20648;-85
2021/12/29 03:07:32;;;;;;;11.17;2.93;;;;;;;10.46;80.97;98422.78;4845833;29;20277;-85
2021/12/29 03:09:59;;;;;;;15.10;3.37;;;;;;;10.49;81.21;98423.44;4862313;29;20186;-85
2021/12/29 03:12:25;;;;;;;5.67;2.10;;;;;;;10.54;80.56;98422.28;4862434;29;20207;-85
2021/12/29 03:14:56;;;;;;;5.47;2.77;;;;;;;10.50;80.57;98424.28;4862261;29;20227;-86
2021/12/29 03:17:23;;;;;;;14.03;2.27;;;;;;;10.24;81.36;98425.09;4845699;29;20187;-86
2021/12/29 03:19:49;;;;;;;4.37;2.67;;;;;;;10.04;81.87;98421.03;4862161;29;20192;-85
2021/12/29 03:22:16;;;;;;;4.47;1.50;;;;;;;10.16;81.57;98425.56;4845518;29;20186;-86
2021/12/29 03:24:43;;;;;;;5.50;2.00;;;;;;;10.14;82.11;98427.41;4862089;29;20187;-86
2021/12/29 03:27:09;;;;;;;5.83;2.53;;;;;;;10.21;81.84;98423.50;4862315;29;20276;-86
2021/12/29 03:29:36;;;;;;;3.63;1.93;;;;;;;10.24;81.26;98423.31;4845425;29;20227;-86
2021/12/29 03:32:07;;;;;;;4.33;1.83;;;;;;;10.21;81.12;98423.50;4861831;29;20674;-86
2021/12/29 03:34:34;;;;;;;3.93;2.07;;;;;;;10.29;81.15;98423.00;4861924;29;20252;-85
2021/12/29 03:37:02;;;;;;;11.83;3.27;;;;;;;10.41;81.00;98423.06;4861864;29;20196;-86
2021/12/29 03:39:35;;;;;;;7.00;2.73;;;;;;;10.39;80.67;98417.09;4861794;29;20215;-85
2021/12/29 03:42:00;;;;;;;4.67;2.33;;;;;;;10.46;80.13;98415.75;4845068;29;20721;-86
2021/12/29 03:44:27;;;;;;;4.43;2.33;;;;;;;10.42;80.23;98416.91;4860533;29;20189;-85
2021/12/29 03:46:54;;;;;;;4.87;2.67;;;;;;;10.33;80.37;98424.50;4861418;29;20176;-85
2021/12/29 03:49:21;;;;;;;3.87;2.47;;;;;;;10.19;80.30;98417.53;4860618;29;20186;-86
2021/12/29 03:51:47;;;;;;;4.63;2.50;;;;;;;10.12;80.84;98421.44;4861579;29;20210;-86
2021/12/29 03:54:14;;;;;;;7.43;3.63;;;;;;;10.06;81.17;98429.66;4861547;29;20188;-85
2021/12/29 03:56:41;;;;;;;6.63;3.60;;;;;;;10.14;81.42;98424.78;4861550;29;20203;-85
2021/12/29 03:59:08;;;;;;;6.27;3.30;;;;;;;10.16;81.19;98424.72;4861258;29;20179;-85
2021/12/29 04:01:35;;;;;;;3.97;2.60;;;;;;;10.20;80.92;98421.81;4861481;29;20641;-85
2021/12/29 04:04:01;;;;;;;4.43;2.50;;;;;;;10.07;81.33;98422.63;4861161;29;20180;-86
2021/12/29 04:06:28;;;;;;;6.50;3.13;;;;;;;10.08;81.14;98433.00;4861151;29;20259;-85
2021/12/29 04:08:55;;;;;;;4.10;2.53;;;;;;;10.05;81.05;98433.19;4861644;29;20187;-85
2021/12/29 04:11:22;;;;;;;3.50;2.10;;;;;;;9.85;81.35;98425.75;4861100;29;20174;-86
2021/12/29 04:13:50;;;;;;;7.23;3.03;;;;;;;9.86;81.92;98424.78;4844691;29;20207;-87
2021/12/29 04:16:18;;;;;;;4.33;2.00;;;;;;;9.77;81.56;98418.31;4860093;29;20179;-86
2021/12/29 04:19:05;;;;;;;13.47;3.07;;;;;;;9.92;81.24;98427.03;4861003;29;20659;-85
2021/12/29 04:21:35;;;;;;;7.57;2.93;;;;;;;9.86;81.87;98420.41;4860873;29;20199;-85
2021/12/29 04:24:07;;;;;;;8.60;3.73;;;;;;;9.99;81.71;98423.09;4844422;29;20184;-85
2021/12/29 04:26:37;;;;;;;5.43;3.00;;;;;;;10.05;80.52;98420.09;4868311;29;20198;-85
2021/12/29 04:29:10;;;;;;;4.10;2.17;;;;;;;10.00;80.60;98424.78;4863099;29;20255;-86
2021/12/29 04:31:37;;;;;;;5.57;3.13;;;;;;;9.90;81.07;98418.44;4879658;29;20169;-86
2021/12/29 04:34:04;;;;;;;4.83;2.20;;;;;;;9.89;81.48;98427.22;4879851;29;20209;-86
2021/12/29 04:36:31;;;;;;;5.13;2.47;;;;;;;9.90;81.41;98423.69;4862871;29;20672;-85
2021/12/29 04:38:59;;;;;;;5.63;2.90;;;;;;;9.95;81.08;98421.63;4879332;29;20239;-85
2021/12/29 04:41:25;;;;;;;7.37;3.17;;;;;;;10.05;80.68;98424.50;4862687;29;20188;-85
2021/12/29 04:43:52;;;;;;;7.87;3.17;;;;;;;10.09;80.34;98423.38;4847592;29;20195;-85
2021/12/29 04:46:27;;;;;;;10.17;4.40;;;;;;;10.07;80.44;98420.84;4879306;29;20180;-85
2021/12/29 04:48:59;;;;;;;4.77;2.27;;;;;;;9.96;80.04;98423.28;4879519;29;20179;-85
2021/12/29 04:51:34;;;;;;;4.63;2.57;;;;;;;9.86;80.87;98430.88;4879805;29;20166;-85
2021/12/29 04:54:03;;;;;;;6.50;2.83;;;;;;;9.77;81.17;98412.28;4862730;29;20681;-85
2021/12/29 04:56:29;;;;;;;6.87;2.50;;;;;;;9.84;80.97;98408.34;4862768;29;20206;-86
2021/12/29 04:58:56;;;;;;;8.67;3.90;;;;;;;9.77;81.19;98405.22;4862833;29;20190;-85
2021/12/29 05:01:22;;;;;;;5.13;2.17;;;;;;;9.86;80.80;98411.69;4864395;29;20182;-85
2021/12/29 05:03:49;;;;;;;5.57;1.70;;;;;;;9.70;81.21;98409.16;4882900;29;20171;-85
2021/12/29 05:09:02;;;;;;;3.10;1.13;;;;;;;9.57;81.03;98404.75;4883094;29;20245;-85
2021/12/29 05:11:28;;;;;;;5.83;2.50;;;;;;;9.72;81.54;98403.88;4882762;29;20250;-85
2021/12/29 05:13:55;;;;;;;3.40;1.67;;;;;;;9.84;80.79;98403.94;4882635;29;20233;-85
2021/12/29 05:16:26;;;;;;;3.63;1.30;;;;;;;9.93;80.08;98389.47;4882924;29;20178;-85
2021/12/29 05:18:52;;;;;;;2.50;1.20;;;;;;;9.83;80.44;98386.56;4866204;29;20224;-85
2021/12/29 05:21:19;;;;;;;2.37;1.50;;;;;;;9.92;79.97;98379.91;4866175;29;20183;-85
2021/12/29 05:23:46;;;;;;;6.93;1.63;;;;;;;9.80;79.91;98380.69;4883056;29;20182;-85
2021/12/29 05:26:12;;;;;;;3.00;1.67;;;;;;;9.64;80.97;98387.78;4867138;29;20272;-85
2021/12/29 05:28:40;;;;;;;3.27;1.50;;;;;;;9.67;81.44;98384.97;4882468;29;20626;-85
2021/12/29 05:31:07;;;;;;;11.63;2.57;;;;;;;9.75;80.52;98380.09;4865934;29;20243;-85
2021/12/29 05:33:33;;;;;;;6.00;2.63;;;;;;;9.61;80.95;98385.34;4865868;29;20202;-85
2021/12/29 05:36:00;;;;;;;7.60;2.80;;;;;;;9.58;81.43;98385.53;4866107;29;20283;-86
2021/12/29 05:38:27;;;;;;;2.83;2.20;;;;;;;9.67;80.96;98380.56;4882273;29;20642;-85
2021/12/29 05:40:54;;;;;;;3.00;1.67;;;;;;;9.85;80.51;98371.59;4865795;29;20179;-85
2021/12/29 05:43:19;;;;;;;6.57;2.30;;;;;;;9.85;80.29;98373.38;4882216;29;20304;-85
2021/12/29 05:45:47;;;;;;;4.93;2.10;;;;;;;9.88;80.24;98373.16;4882131;29;20209;-86
2021/12/29 05:48:14;;;;;;;4.90;1.87;;;;;;;9.90;80.10;98371.31;4865665;29;20273;-85
2021/12/29 05:50:41;;;;;;;3.90;2.00;;;;;;;10.00;79.86;98377.66;4882305;29;20338;-86
2021/12/29 05:53:08;;;;;;;6.27;2.57;;;;;;;10.06;79.80;98374.69;4875937;29;20565;-86
2021/12/29 05:55:35;;;;;;;4.97;2.20;;;;;;;10.00;79.05;98375.03;4849203;29;20194;-86
2021/12/29 05:58:01;;;;;;;7.57;2.87;;;;;;;10.00;79.14;98377.66;4847144;29;20669;-86
2021/12/29 06:00:28;;;;;;;10.13;2.77;;;;;;;10.10;79.37;98376.16;4847099;29;20203;-85
2021/12/29 06:02:55;;;;;;;12.20;3.03;;;;;;;10.11;78.97;98375.22;4863276;29;20179;-86
2021/12/29 06:05:23;;;;;;;7.93;2.70;;;;;;;10.15;78.34;98374.13;4846892;29;20186;-85
2021/12/29 06:07:49;;;;;;;12.50;4.30;;;;;;;10.20;78.49;98377.28;4863453;29;20208;-86
2021/12/29 06:10:15;;;;;;;11.47;3.37;;;;;;;10.19;78.63;98373.00;4863132;29;20641;-86
2021/12/29 06:12:41;;;;;;;17.13;5.37;;;;;;;10.24;78.36;98378.78;4862107;29;20206;-85
2021/12/29 06:15:09;;;;;;;9.20;3.70;;;;;;;10.21;78.19;98380.75;4863824;29;20178;-86
2021/12/29 06:17:37;;;;;;;17.47;5.30;;;;;;;10.22;77.96;98378.03;4862341;29;20245;-86
2021/12/29 06:20:05;;;;;;;17.60;5.77;;;;;;;9.97;78.40;98383.09;4873149;29;20190;-86
2021/12/29 06:22:32;;;;;;;13.50;5.63;;;;;;;9.85;79.90;98389.09;4862837;29;20180;-86
2021/12/29 06:24:59;;;;;;;14.27;4.07;;;;;;;9.81;80.38;98390.19;4863023;29;20183;-86
2021/12/29 06:27:26;;;;;;;14.57;3.80;;;;;;;9.93;79.92;98397.31;4872525;29;20295;-86
2021/12/29 06:29:53;;;;;;;8.73;3.57;;;;;;;9.88;79.57;98394.97;4881904;29;20183;-86
2021/12/29 06:32:20;;;;;;;6.27;3.23;;;;;;;9.74;80.30;98402.84;4864378;29;20761;-88
2021/12/29 06:34:47;;;;;;;14.53;5.03;;;;;;;9.76;80.94;98394.88;4865058;29;20198;-88
2021/12/29 06:37:13;;;;;;;13.07;3.17;;;;;;;9.70;80.91;98392.63;4864741;29;20184;-86
2021/12/29 06:39:45;;;;;;;8.50;2.77;;;;;;;9.64;81.92;98388.59;4864626;29;20254;-88
2021/12/29 06:42:12;;;;;;;15.13;2.43;;;;;;;9.69;81.35;98383.97;4881583;29;20239;-87
2021/12/29 06:44:39;;;;;;;9.23;2.13;;;;;;;9.78;81.33;98393.00;4858049;29;20223;-85
2021/12/29 06:47:07;;;;;;;4.47;2.57;;;;;;;9.90;80.88;98393.09;4864434;29;20188;-85
2021/12/29 06:49:34;;;;;;;11.30;2.90;;;;;;;9.97;80.68;98393.56;4864629;29;20193;-85
2021/12/29 06:52:03;;;;;;;5.27;2.67;;;;;;;9.98;80.78;98390.00;4880937;29;20260;-85
2021/12/29 06:54:34;;;;;;;4.43;2.10;;;;;;;10.06;80.64;98395.63;4876568;29;20273;-85
2021/12/29 06:57:02;;;;;;;4.60;1.77;;;;;;;10.04;79.94;98389.63;4877939;29;20588;-86
2021/12/29 06:59:29;;;;;;;4.23;2.00;;;;;;;9.97;80.02;98388.31;4880532;29;20194;-86
2021/12/29 07:01:58;;;;;;;3.87;2.00;;;;;;;9.97;80.14;98383.09;4864361;29;20191;-86
2021/12/29 07:04:25;;;;;;;4.57;1.93;;;;;;;9.95;80.03;98390.19;4864320;29;20187;-85
2021/12/29 07:06:55;;;;;;;2.30;1.37;;;;;;;9.95;79.99;98389.34;4879036;29;20181;-85
2021/12/29 07:09:22;;;;;;;3.73;1.93;;;;;;;9.96;80.21;98388.44;4860968;29;20187;-85
2021/12/29 07:11:48;;;;;;;3.90;1.87;;;;;;;9.82;80.68;98389.28;4864422;29;20190;-85
2021/12/29 07:14:15;;;;;;;4.70;1.93;;;;;;;9.69;82.09;98388.34;4881813;29;20211;-86
2021/12/29 07:16:44;;;;;;;3.20;1.60;;;;;;;9.72;81.94;98388.97;4899214;29;20185;-86
2021/12/29 07:19:11;;;;;;;3.33;2.00;;;;;;;9.72;81.71;98394.22;4899015;29;20634;-86
2021/12/29 07:21:37;;;;;;;4.97;2.43;;;;;;;9.86;81.39;98393.38;4878006;29;20191;-85
2021/12/29 07:24:04;;;;;;;6.73;2.53;;;;;;;9.71;81.84;98396.94;4857785;29;20179;-86
2021/12/29 07:26:31;;;;;;;12.10;3.30;;;;;;;9.90;81.21;98397.50;4865548;29;20192;-85
2021/12/29 07:29:01;;;;;;;2.57;1.47;;;;;;;9.73;81.67;98398.53;4864172;29;20188;-85
2021/12/29 07:31:29;;;;;;;5.17;2.07;;;;;;;9.84;81.47;98398.72;4877934;29;20569;-86
2021/12/29 07:33:56;;;;;;;5.50;1.93;;;;;;;9.77;81.36;98402.63;4863965;29;20220;-86
2021/12/29 07:36:21;;;;;;;4.57;2.10;;;;;;;9.81;81.51;98403.28;4880046;29;20223;-86
2021/12/29 07:38:47;;;;;;;31.63;10.03;;;;;;;9.80;81.39;98401.63;4862011;29;20223;-86
2021/12/29 07:41:13;;;;;;;12.87;5.30;;;;;;;9.67;82.15;98401.50;4879992;29;20202;-85
2021/12/29 07:43:39;;;;;;;11.63;3.47;;;;;;;9.68;82.48;98392.72;4861767;29;20282;-87
2021/12/29 07:46:06;;;;;;;8.80;3.67;;;;;;;9.56;83.21;98401.31;4861750;29;20749;-87
2021/12/29 07:48:33;;;;;;;3.87;2.00;;;;;;;9.70;82.92;98400.47;4877886;29;20194;-86
2021/12/29 07:51:00;;;;;;;6.00;2.17;;;;;;;9.50;83.14;98403.44;4877885;29;20187;-86
2021/12/29 07:53:26;;;;;;;9.47;4.10;;;;;;;9.43;83.78;98399.53;4877779;29;20282;-87
2021/12/29 07:55:52;;;;;;;13.53;2.80;;;;;;;9.49;83.78;98412.22;4861422;29;20305;-86
2021/12/29 07:58:17;;;;;;;12.13;4.53;;;;;;;9.62;83.52;98408.78;4862315;29;20191;-86
2021/12/29 08:00:44;;;;;;;5.80;3.43;;;;;;;9.72;82.84;98409.09;4879731;29;20190;-86
2021/12/29 08:03:14;;;;;;;4.37;2.63;;;;;;;9.63;82.61;98410.47;4879636;29;20240;-85
2021/12/29 08:05:41;;;;;;;6.17;4.07;;;;;;;9.58;83.10;98416.91;4860601;29;20184;-86
2021/12/29 08:08:07;;;;;;;12.13;4.87;;;;;;;9.48;84.08;98414.03;4860275;29;20259;-87
2021/12/29 08:10:34;;;;;;;6.87;3.03;;;;;;;9.56;83.74;98413.56;4865487;29;20638;-87
2021/12/29 08:13:01;;;;;;;7.03;3.40;;;;;;;9.62;83.16;98397.47;4862904;29;20286;-87
2021/12/29 08:15:27;;;;;;;10.37;4.50;;;;;;;9.60;83.50;98394.13;4874111;29;20196;-87
2021/12/29 08:17:52;;;;;;;20.47;5.27;;;;;;;9.70;83.35;98395.25;4860914;29;20483;-87
2021/12/29 08:20:18;;;;;;;16.33;5.20;;;;;;;9.89;82.82;98390.56;4862787;29;20202;-87
2021/12/29 08:22:43;;;;;;;22.30;4.80;;;;;;;9.91;82.35;98386.06;4863007;29;20177;-87
2021/12/29 08:25:09;;;;;;;10.90;4.87;;;;;;;9.94;82.65;98387.66;4863227;29;20183;-87
2021/12/29 08:27:34;;;;;;;21.33;4.60;;;;;;;10.04;81.78;98391.38;4863164;29;20186;-87
2021/12/29 08:30:00;;;;;;;20.33;6.47;;;;;;;9.85;82.04;98389.09;4879202;29;20311;-87
2021/12/29 08:32:26;;;;;;;25.30;7.40;;;;;;;9.99;81.84;98389.06;4879382;29;20201;-86
2021/12/29 08:34:52;;;;;;;19.30;5.53;;;;;;;10.10;81.54;98397.09;4872701;29;20189;-87
2021/12/29 08:37:18;;;;;;;16.70;5.60;;;;;;;10.20;81.11;98395.63;4862804;29;20188;-87
2021/12/29 08:39:44;;;;;;;19.60;7.00;;;;;;;10.24;80.79;98399.75;4862886;29;20272;-87
2021/12/29 08:42:11;;;;;;;14.27;5.87;;;;;;;10.21;80.62;98402.53;4878959;29;20234;-86
2021/12/29 08:44:37;;;;;;;23.20;6.53;;;;;;;10.08;80.64;98400.75;4862804;29;20185;-87
2021/12/29 08:47:03;;;;;;;32.00;7.80;;;;;;;10.08;80.85;98398.97;4879198;29;20201;-87
2021/12/29 08:49:28;;;;;;;17.20;6.07;;;;;;;9.99;81.02;98396.91;4879165;29;20724;-87
2021/12/29 08:51:54;;;;;;;25.77;5.90;;;;;;;9.96;80.65;98388.44;4878637;29;20181;-87
2021/12/29 08:54:19;;;;;;;13.10;3.07;;;;;;;9.87;81.34;98384.59;4859715;29;20215;-87
2021/12/29 08:56:45;;;;;;;13.70;5.33;;;;;;;9.80;81.54;98388.53;4863156;29;20249;-87
2021/12/29 08:59:12;;;;;;;11.17;3.13;;;;;;;9.87;81.56;98392.44;4862976;29;20182;-87
2021/12/29 09:01:37;;;;;;;15.20;3.97;;;;;;;10.03;80.78;98387.94;4857955;29;20188;-87
2021/12/29 09:04:03;;;;;;;8.07;2.83;;;;;;;10.10;80.47;98385.78;4858039;29;20193;-88
2021/12/29 09:06:29;;;;;;;9.10;3.20;;;;;;;10.13;80.49;98383.84;4843992;29;20179;-88
2021/12/29 09:08:54;;;;;;;17.23;3.67;;;;;;;9.96;80.49;98383.19;4854857;29;20193;-88
2021/12/29 09:11:21;;;;;;;8.63;3.30;;;;;;;9.88;80.50;98383.66;4878354;29;20202;-87
2021/12/29 09:13:46;;;;;;;8.53;3.10;;;;;;;9.91;80.79;98380.84;4877809;29;20571;-87
2021/12/29 09:16:12;;;;;;;5.20;3.10;;;;;;;9.85;80.63;98373.38;4878719;29;20187;-88
2021/12/29 09:18:38;;;;;;;7.77;2.50;;;;;;;9.94;80.30;98372.81;4878754;29;20259;-88
2021/12/29 09:21:07;;;;;;;6.80;3.07;;;;;;;9.95;80.16;98363.19;4862374;29;20180;-88
2021/12/29 09:23:34;;;;;;;11.90;3.00;;;;;;;9.87;80.74;98358.41;4862522;29;20185;-87
2021/12/29 09:26:00;;;;;;;8.83;2.83;;;;;;;9.93;80.39;98358.06;4877792;29;20320;-88
2021/12/29 09:28:26;;;;;;;11.13;2.87;;;;;;;9.82;81.02;98353.47;4878681;29;20184;-88
2021/12/29 09:30:54;;;;;;;4.13;1.90;;;;;;;9.80;80.73;98355.31;4878744;29;20180;-88
2021/12/29 09:33:20;;;;;;;3.93;1.47;;;;;;;9.77;81.02;98339.00;4862187;29;20357;-88
2021/12/29 09:35:48;;;;;;;4.13;1.77;;;;;;;9.72;81.33;98341.06;4878548;29;20189;-87
2021/12/29 09:38:16;;;;;;;3.77;1.37;;;;;;;9.67;81.79;98346.56;4878549;29;20212;-87
2021/12/29 09:40:45;;;;;;;4.53;1.63;;;;;;;9.71;81.16;98339.38;4862507;29;20189;-87
2021/12/29 09:43:11;;;;;;;4.23;2.10;;;;;;;9.84;81.09;98329.81;4861370;29;20199;-88
2021/12/29 09:45:38;;;;;;;3.73;1.70;;;;;;;9.82;80.84;98326.47;4878500;29;20185;-87
2021/12/29 09:48:05;;;;;;;4.10;1.53;;;;;;;9.69;80.66;98323.78;4860025;29;20295;-87
2021/12/29 09:50:31;;;;;;;4.63;1.87;;;;;;;9.75;80.99;98325.13;4863299;29;20182;-88
2021/12/29 09:52:57;;;;;;;3.70;1.70;;;;;;;9.94;80.67;98319.59;4846964;29;20568;-87
2021/12/29 09:55:24;;;;;;;4.57;2.00;;;;;;;9.84;80.91;98320.19;4846912;29;20187;-87
2021/12/29 09:57:54;;;;;;;14.87;4.23;;;;;;;9.78;80.99;98320.56;4877558;29;20209;-87
2021/12/29 10:00:32;;;;;;;4.53;2.33;;;;;;;9.66;81.07;98320.50;4877638;29;20200;-87
2021/12/29 10:03:01;;;;;;;5.20;2.47;;;;;;;9.73;81.27;98312.16;4881108;29;20599;-86
2021/12/29 10:05:29;;;;;;;8.13;3.17;;;;;;;9.90;81.43;98305.88;4862497;29;20640;-87
2021/12/29 10:08:14;;;;;;;6.50;1.97;;;;;;;10.03;80.78;98304.19;4881350;29;20193;-87
2021/12/29 10:10:45;;;;;;;5.67;2.30;;;;;;;10.13;80.18;98300.06;4873392;29;20642;-87
2021/12/29 10:13:12;;;;;;;2.00;1.07;;;;;;;10.11;79.94;98288.81;4877713;29;20287;-86
2021/12/29 10:15:51;;;;;;;3.73;1.00;;;;;;;10.14;79.75;98290.44;4880165;29;20648;-87
2021/12/29 10:18:19;;;;;;;2.23;1.47;;;;;;;10.21;79.62;98282.09;4862318;29;20248;-87
2021/12/29 10:20:55;;;;;;;4.90;2.13;;;;;;;10.27;79.60;98275.59;4880699;29;20214;-87
2021/12/29 10:23:40;;;;;;;3.87;1.70;;;;;;;10.19;80.03;98273.50;4854080;29;20175;-87
2021/12/29 10:26:12;;;;;;;1.00;0.60;;;;;;;10.24;79.33;98268.78;4857808;29;20237;-87
2021/12/29 10:29:02;;;;;;;1.13;0.73;;;;;;;10.09;79.49;98269.72;4855065;29;20197;-87
2021/12/29 10:31:34;;;;;;;3.00;1.07;;;;;;;9.93;79.70;98266.44;4866679;29;20192;-87
2021/12/29 10:34:08;;;;;;;2.47;1.53;;;;;;;9.86;80.80;98265.97;4861578;29;20297;-87
2021/12/29 10:37:00;;;;;;;3.07;1.53;;;;;;;9.87;80.74;98267.66;4861348;29;20199;-87
2021/12/29 10:39:37;;;;;;;1.37;0.90;;;;;;;9.75;81.34;98263.19;4863003;29;20570;-87
2021/12/29 10:42:15;;;;;;;1.97;1.00;;;;;;;9.69;82.01;98254.91;4863772;29;20516;-87
2021/12/29 10:44:51;;;;;;;3.37;1.47;;;;;;;9.64;83.18;98262.19;4884360;29;20183;-87
2021/12/29 10:47:28;;;;;;;2.00;1.03;;;;;;;9.85;82.56;98263.47;4882523;29;20184;-88
2021/12/29 10:50:12;;;;;;;4.03;1.20;;;;;;;9.88;81.91;98268.47;4862980;29;20191;-87
2021/12/29 10:52:43;;;;;;;3.37;1.77;;;;;;;10.02;81.31;98255.34;4863420;29;20210;-87
2021/12/29 10:55:15;;;;;;;4.30;1.60;;;;;;;10.02;81.56;98257.97;4848603;29;20180;-88
2021/12/29 10:57:42;;;;;;;5.03;2.33;;;;;;;9.96;82.16;98250.50;4879910;29;20651;-89
2021/12/29 11:00:15;;;;;;;2.77;1.50;;;;;;;10.02;82.02;98255.34;4879368;29;20214;-88
2021/12/29 11:02:43;;;;;;;3.53;1.93;;;;;;;10.16;81.64;98241.41;4863524;29;20190;-88
2021/12/29 11:05:10;;;;;;;3.70;1.40;;;;;;;10.29;81.06;98244.91;4863049;29;20499;-88
2021/12/29 11:07:40;;;;;;;2.03;1.30;;;;;;;10.20;81.03;98243.72;4863742;29;20183;-88
2021/12/29 11:10:20;;;;;;;2.03;1.10;;;;;;;10.34;80.73;98238.44;4863407;29;20197;-88
2021/12/29 11:12:54;;;;;;;1.40;0.60;;;;;;;10.21;80.76;98240.19;4866800;29;20205;-88
2021/12/29 11:15:30;;;;;;;2.67;1.07;;;;;;;10.10;81.37;98237.38;4871260;29;20640;-88
2021/12/29 11:18:04;;;;;;;3.07;1.63;;;;;;;10.17;81.17;98243.91;4859827;29;20182;-88
2021/12/29 11:20:32;;;;;;;1.50;0.97;;;;;;;10.17;81.43;98238.69;4877626;29;20177;-88
2021/12/29 11:23:14;;;;;;;0.97;0.63;;;;;;;10.24;80.90;98233.91;4879690;29;20226;-88
2021/12/29 11:25:43;;;;;;;2.13;0.97;;;;;;;10.32;81.03;98226.38;4879072;29;20192;-88
2021/12/29 11:28:28;;;;;;;1.70;1.00;;;;;;;10.12;81.70;98229.41;4863764;29;20202;-88
2021/12/29 11:30:58;;;;;;;3.03;1.07;;;;;;;10.20;81.62;98225.41;4880241;29;20164;-88
2021/12/29 11:33:29;;;;;;;2.30;0.97;;;;;;;10.26;81.33;98222.38;4863071;29;20203;-89
2021/12/29 11:35:56;;;;;;;2.27;1.40;;;;;;;10.23;81.22;98217.34;4880016;29;20172;-88
2021/12/29 11:38:24;;;;;;;1.50;0.80;;;;;;;10.24;81.61;98219.03;4880304;29;20190;-89
2021/12/29 11:41:00;;;;;;;2.63;1.27;;;;;;;10.22;81.21;98214.84;4862833;29;20514;-88
2021/12/29 11:43:27;;;;;;;2.03;1.07;;;;;;;10.10;81.63;98218.22;4858884;29;20707;-88
2021/12/29 11:45:56;;;;;;;1.17;0.57;;;;;;;9.85;82.80;98208.50;4860208;29;20541;-89